sensor_id;sensor_type;location;lat;lon;timestamp;temperature;humidity
20672;DHT22;10495;50.922;4.760;2023-03-01T00:02:01;0.50;65.90
20672;DHT22;10495;50.922;4.760;2023-03-01T00:04:27;0.50;65.50
20672;DHT22;10495;50.922;4.760;2023-03-01T00:06:53;0.50;65.50
20672;DHT22;10495;50.922;4.760;2023-03-01T00:09:18;0.50;65.60
20672;DHT22;10495;50.922;4.760;2023-03-01T00:11:44;0.50;65.60
20672;DHT22;10495;50.922;4.760;2023-03-01T00:14:10;0.40;66.30
20672;DHT22;10495;50.922;4.760;2023-03-01T00:16:40;0.40;66.20
20672;DHT22;10495;50.922;4.760;2023-03-01T00:19:12;0.40;67.50
20672;DHT22;10495;50.922;4.760;2023-03-01T00:21:38;0.40;66.40
20672;DHT22;10495;50.922;4.760;2023-03-01T00:24:04;0.30;66.20
20672;DHT22;10495;50.922;4.760;2023-03-01T00:26:30;0.30;66.00
20672;DHT22;10495;50.922;4.760;2023-03-01T00:28:57;0.40;65.90
20672;DHT22;10495;50.922;4.760;2023-03-01T00:31:25;0.30;66.00
20672;DHT22;10495;50.922;4.760;2023-03-01T00:33:58;0.30;65.80
20672;DHT22;10495;50.922;4.760;2023-03-01T00:36:27;0.30;66.50
20672;DHT22;10495;50.922;4.760;2023-03-01T00:38:53;0.20;66.20
20672;DHT22;10495;50.922;4.760;2023-03-01T00:41:19;0.20;66.40
20672;DHT22;10495;50.922;4.760;2023-03-01T00:43:45;0.20;66.30
20672;DHT22;10495;50.922;4.760;2023-03-01T00:46:16;0.20;66.70
20672;DHT22;10495;50.922;4.760;2023-03-01T00:48:43;0.20;66.60
20672;DHT22;10495;50.922;4.760;2023-03-01T00:53:38;0.10;67.50
20672;DHT22;10495;50.922;4.760;2023-03-01T00:56:06;0.10;67.80
20672;DHT22;10495;50.922;4.760;2023-03-01T00:58:32;0.10;68.00
20672;DHT22;10495;50.922;4.760;2023-03-01T01:00:59;0.00;68.40
20672;DHT22;10495;50.922;4.760;2023-03-01T01:03:24;0.00;68.70
20672;DHT22;10495;50.922;4.760;2023-03-01T01:05:54;0.00;68.60
20672;DHT22;10495;50.922;4.760;2023-03-01T01:08:20;-0.10;69.10
20672;DHT22;10495;50.922;4.760;2023-03-01T01:10:46;-0.10;69.70
20672;DHT22;10495;50.922;4.760;2023-03-01T01:13:13;-0.10;69.00
20672;DHT22;10495;50.922;4.760;2023-03-01T01:15:38;-0.10;69.00
20672;DHT22;10495;50.922;4.760;2023-03-01T01:18:04;-0.10;69.00
20672;DHT22;10495;50.922;4.760;2023-03-01T01:20:30;0.00;69.10
20672;DHT22;10495;50.922;4.760;2023-03-01T01:22:56;-0.10;68.70
20672;DHT22;10495;50.922;4.760;2023-03-01T01:25:21;-0.10;68.70
20672;DHT22;10495;50.922;4.760;2023-03-01T01:27:50;-0.10;68.60
20672;DHT22;10495;50.922;4.760;2023-03-01T01:30:16;-0.10;68.50
20672;DHT22;10495;50.922;4.760;2023-03-01T01:32:42;-0.10;68.80
20672;DHT22;10495;50.922;4.760;2023-03-01T01:35:08;-0.10;68.70
20672;DHT22;10495;50.922;4.760;2023-03-01T01:37:33;-0.10;68.90
20672;DHT22;10495;50.922;4.760;2023-03-01T01:40:00;-0.10;69.60
20672;DHT22;10495;50.922;4.760;2023-03-01T01:42:26;-0.10;69.30
20672;DHT22;10495;50.922;4.760;2023-03-01T01:47:52;-0.10;68.70
20672;DHT22;10495;50.922;4.760;2023-03-01T01:50:20;-0.10;68.70
20672;DHT22;10495;50.922;4.760;2023-03-01T01:52:48;-0.20;69.00
20672;DHT22;10495;50.922;4.760;2023-03-01T01:55:20;-0.20;68.70
20672;DHT22;10495;50.922;4.760;2023-03-01T01:57:59;-0.20;68.90
20672;DHT22;10495;50.922;4.760;2023-03-01T02:00:29;-0.20;69.00
20672;DHT22;10495;50.922;4.760;2023-03-01T02:02:59;-0.30;69.40
20672;DHT22;10495;50.922;4.760;2023-03-01T02:05:53;-0.30;69.40
20672;DHT22;10495;50.922;4.760;2023-03-01T02:08:25;-0.30;69.10
20672;DHT22;10495;50.922;4.760;2023-03-01T02:10:53;-0.30;69.10
20672;DHT22;10495;50.922;4.760;2023-03-01T02:13:19;-0.40;69.80
20672;DHT22;10495;50.922;4.760;2023-03-01T02:15:45;-0.40;70.00
20672;DHT22;10495;50.922;4.760;2023-03-01T02:18:14;-0.40;69.90
20672;DHT22;10495;50.922;4.760;2023-03-01T02:23:41;-0.40;69.50
20672;DHT22;10495;50.922;4.760;2023-03-01T02:28:51;-0.40;69.90
20672;DHT22;10495;50.922;4.760;2023-03-01T02:31:18;-0.50;69.80
20672;DHT22;10495;50.922;4.760;2023-03-01T02:34:03;-0.50;70.20
20672;DHT22;10495;50.922;4.760;2023-03-01T02:36:36;-0.50;70.00
20672;DHT22;10495;50.922;4.760;2023-03-01T02:39:04;-0.50;69.80
20672;DHT22;10495;50.922;4.760;2023-03-01T02:41:35;-0.50;70.10
20672;DHT22;10495;50.922;4.760;2023-03-01T02:44:01;-0.60;70.00
20672;DHT22;10495;50.922;4.760;2023-03-01T02:46:27;-0.60;70.50
20672;DHT22;10495;50.922;4.760;2023-03-01T02:48:55;-0.60;70.50
20672;DHT22;10495;50.922;4.760;2023-03-01T02:56:44;-0.60;70.80
20672;DHT22;10495;50.922;4.760;2023-03-01T02:59:13;-0.60;71.10
20672;DHT22;10495;50.922;4.760;2023-03-01T03:01:39;-0.70;71.20
20672;DHT22;10495;50.922;4.760;2023-03-01T03:04:12;-0.70;71.00
20672;DHT22;10495;50.922;4.760;2023-03-01T03:06:45;-0.70;71.10
20672;DHT22;10495;50.922;4.760;2023-03-01T03:09:12;-0.70;71.20
20672;DHT22;10495;50.922;4.760;2023-03-01T03:11:38;-0.70;71.50
20672;DHT22;10495;50.922;4.760;2023-03-01T03:14:09;-0.80;71.60
20672;DHT22;10495;50.922;4.760;2023-03-01T03:16:48;-0.80;71.40
20672;DHT22;10495;50.922;4.760;2023-03-01T03:19:15;-0.80;72.00
20672;DHT22;10495;50.922;4.760;2023-03-01T03:21:42;-0.90;72.40
20672;DHT22;10495;50.922;4.760;2023-03-01T03:24:08;-0.90;72.10
20672;DHT22;10495;50.922;4.760;2023-03-01T03:26:33;-0.90;72.30
20672;DHT22;10495;50.922;4.760;2023-03-01T03:28:59;-0.90;72.40
20672;DHT22;10495;50.922;4.760;2023-03-01T03:31:25;-1.00;72.90
20672;DHT22;10495;50.922;4.760;2023-03-01T03:33:51;-0.90;72.80
20672;DHT22;10495;50.922;4.760;2023-03-01T03:36:18;-0.90;72.70
20672;DHT22;10495;50.922;4.760;2023-03-01T03:38:44;-0.90;72.70
20672;DHT22;10495;50.922;4.760;2023-03-01T03:41:11;-0.90;72.10
20672;DHT22;10495;50.922;4.760;2023-03-01T03:43:39;-0.80;72.20
20672;DHT22;10495;50.922;4.760;2023-03-01T03:46:06;-0.80;71.80
20672;DHT22;10495;50.922;4.760;2023-03-01T03:48:37;-0.90;71.70
20672;DHT22;10495;50.922;4.760;2023-03-01T03:51:03;-0.90;71.50
20672;DHT22;10495;50.922;4.760;2023-03-01T03:53:32;-0.90;71.70
20672;DHT22;10495;50.922;4.760;2023-03-01T03:55:58;-0.90;72.30
20672;DHT22;10495;50.922;4.760;2023-03-01T03:58:25;-0.90;71.90
20672;DHT22;10495;50.922;4.760;2023-03-01T04:00:54;-0.90;71.70
20672;DHT22;10495;50.922;4.760;2023-03-01T04:03:21;-1.00;71.80
20672;DHT22;10495;50.922;4.760;2023-03-01T04:05:48;-1.00;72.50
20672;DHT22;10495;50.922;4.760;2023-03-01T04:08:16;-1.00;72.30
20672;DHT22;10495;50.922;4.760;2023-03-01T04:10:46;-1.00;72.60
20672;DHT22;10495;50.922;4.760;2023-03-01T04:13:15;-1.00;72.50
20672;DHT22;10495;50.922;4.760;2023-03-01T04:15:41;-1.00;72.70
20672;DHT22;10495;50.922;4.760;2023-03-01T04:18:09;-1.00;72.20
20672;DHT22;10495;50.922;4.760;2023-03-01T04:20:37;-1.00;72.40
20672;DHT22;10495;50.922;4.760;2023-03-01T04:23:23;-1.00;72.50
20672;DHT22;10495;50.922;4.760;2023-03-01T04:25:54;-1.00;72.60
20672;DHT22;10495;50.922;4.760;2023-03-01T04:28:25;-1.10;72.80
20672;DHT22;10495;50.922;4.760;2023-03-01T04:30:52;-1.10;72.90
20672;DHT22;10495;50.922;4.760;2023-03-01T04:33:19;-1.10;73.00
20672;DHT22;10495;50.922;4.760;2023-03-01T04:35:45;-1.10;72.60
20672;DHT22;10495;50.922;4.760;2023-03-01T04:38:15;-1.10;72.60
20672;DHT22;10495;50.922;4.760;2023-03-01T04:40:40;-1.20;72.90
20672;DHT22;10495;50.922;4.760;2023-03-01T04:43:09;-1.20;72.50
20672;DHT22;10495;50.922;4.760;2023-03-01T04:45:35;-1.20;72.90
20672;DHT22;10495;50.922;4.760;2023-03-01T04:48:02;-1.30;72.80
20672;DHT22;10495;50.922;4.760;2023-03-01T04:50:28;-1.30;73.10
20672;DHT22;10495;50.922;4.760;2023-03-01T04:52:53;-1.30;72.90
20672;DHT22;10495;50.922;4.760;2023-03-01T04:55:19;-1.40;73.60
20672;DHT22;10495;50.922;4.760;2023-03-01T04:57:45;-1.40;73.30
20672;DHT22;10495;50.922;4.760;2023-03-01T05:00:12;-1.40;73.50
20672;DHT22;10495;50.922;4.760;2023-03-01T05:05:14;-1.40;73.10
20672;DHT22;10495;50.922;4.760;2023-03-01T05:07:40;-1.40;72.80
20672;DHT22;10495;50.922;4.760;2023-03-01T05:10:05;-1.40;72.80
20672;DHT22;10495;50.922;4.760;2023-03-01T05:12:31;-1.50;73.30
20672;DHT22;10495;50.922;4.760;2023-03-01T05:14:57;-1.40;73.10
20672;DHT22;10495;50.922;4.760;2023-03-01T05:17:23;-1.50;73.40
20672;DHT22;10495;50.922;4.760;2023-03-01T05:19:49;-1.50;73.40
20672;DHT22;10495;50.922;4.760;2023-03-01T05:22:15;-1.50;73.20
20672;DHT22;10495;50.922;4.760;2023-03-01T05:24:41;-1.50;73.00
20672;DHT22;10495;50.922;4.760;2023-03-01T05:27:07;-1.60;73.50
20672;DHT22;10495;50.922;4.760;2023-03-01T05:29:33;-1.50;73.40
20672;DHT22;10495;50.922;4.760;2023-03-01T05:32:01;-1.50;73.20
20672;DHT22;10495;50.922;4.760;2023-03-01T05:34:33;-1.50;73.40
20672;DHT22;10495;50.922;4.760;2023-03-01T05:36:59;-1.60;73.60
20672;DHT22;10495;50.922;4.760;2023-03-01T05:39:26;-1.60;73.50
20672;DHT22;10495;50.922;4.760;2023-03-01T05:41:57;-1.60;73.00
20672;DHT22;10495;50.922;4.760;2023-03-01T05:46:51;-1.60;73.40
20672;DHT22;10495;50.922;4.760;2023-03-01T05:49:17;-1.60;73.50
20672;DHT22;10495;50.922;4.760;2023-03-01T05:51:46;-1.60;73.30
20672;DHT22;10495;50.922;4.760;2023-03-01T05:54:12;-1.60;73.40
20672;DHT22;10495;50.922;4.760;2023-03-01T05:56:38;-1.60;73.30
20672;DHT22;10495;50.922;4.760;2023-03-01T05:59:05;-1.60;73.60
20672;DHT22;10495;50.922;4.760;2023-03-01T06:01:32;-1.70;73.80
20672;DHT22;10495;50.922;4.760;2023-03-01T06:03:57;-1.70;73.60
20672;DHT22;10495;50.922;4.760;2023-03-01T06:06:24;-1.60;73.80
20672;DHT22;10495;50.922;4.760;2023-03-01T06:08:51;-1.60;73.70
20672;DHT22;10495;50.922;4.760;2023-03-01T06:11:17;-1.70;74.50
20672;DHT22;10495;50.922;4.760;2023-03-01T06:13:43;-1.70;74.20
20672;DHT22;10495;50.922;4.760;2023-03-01T06:16:10;-1.60;74.30
20672;DHT22;10495;50.922;4.760;2023-03-01T06:18:37;-1.70;74.20
20672;DHT22;10495;50.922;4.760;2023-03-01T06:21:03;-1.70;74.30
20672;DHT22;10495;50.922;4.760;2023-03-01T06:23:29;-1.70;74.80
20672;DHT22;10495;50.922;4.760;2023-03-01T06:25:54;-1.70;75.00
20672;DHT22;10495;50.922;4.760;2023-03-01T06:28:20;-1.80;75.10
20672;DHT22;10495;50.922;4.760;2023-03-01T06:30:46;-1.70;74.80
20672;DHT22;10495;50.922;4.760;2023-03-01T06:33:11;-1.70;74.80
20672;DHT22;10495;50.922;4.760;2023-03-01T06:35:37;-1.70;75.10
20672;DHT22;10495;50.922;4.760;2023-03-01T06:38:03;-1.70;75.10
20672;DHT22;10495;50.922;4.760;2023-03-01T06:40:30;-1.70;74.90
20672;DHT22;10495;50.922;4.760;2023-03-01T06:42:57;-1.70;74.70
20672;DHT22;10495;50.922;4.760;2023-03-01T06:45:23;-1.70;74.70
20672;DHT22;10495;50.922;4.760;2023-03-01T06:47:50;-1.70;75.10
20672;DHT22;10495;50.922;4.760;2023-03-01T06:50:16;-1.70;75.10
20672;DHT22;10495;50.922;4.760;2023-03-01T06:52:43;-1.60;75.10
20672;DHT22;10495;50.922;4.760;2023-03-01T06:55:12;-1.60;75.00
20672;DHT22;10495;50.922;4.760;2023-03-01T06:57:38;-1.60;75.40
20672;DHT22;10495;50.922;4.760;2023-03-01T07:00:04;-1.60;75.50
20672;DHT22;10495;50.922;4.760;2023-03-01T07:02:31;-1.60;76.10
20672;DHT22;10495;50.922;4.760;2023-03-01T07:04:57;-1.60;76.20
20672;DHT22;10495;50.922;4.760;2023-03-01T07:07:22;-1.50;76.20
20672;DHT22;10495;50.922;4.760;2023-03-01T07:09:48;-1.50;76.30
20672;DHT22;10495;50.922;4.760;2023-03-01T07:12:14;-1.50;76.30
20672;DHT22;10495;50.922;4.760;2023-03-01T07:14:40;-1.40;76.40
20672;DHT22;10495;50.922;4.760;2023-03-01T07:17:06;-1.40;76.50
20672;DHT22;10495;50.922;4.760;2023-03-01T07:19:32;-1.30;76.60
20672;DHT22;10495;50.922;4.760;2023-03-01T07:21:57;-1.30;76.80
20672;DHT22;10495;50.922;4.760;2023-03-01T07:24:23;-1.30;76.90
20672;DHT22;10495;50.922;4.760;2023-03-01T07:26:50;-1.20;77.10
20672;DHT22;10495;50.922;4.760;2023-03-01T07:29:16;-1.10;76.90
20672;DHT22;10495;50.922;4.760;2023-03-01T07:31:42;-1.00;77.00
20672;DHT22;10495;50.922;4.760;2023-03-01T07:34:07;-1.00;77.10
20672;DHT22;10495;50.922;4.760;2023-03-01T07:36:33;-0.90;77.00
20672;DHT22;10495;50.922;4.760;2023-03-01T07:38:59;-0.80;77.20
20672;DHT22;10495;50.922;4.760;2023-03-01T07:41:27;-0.70;77.40
20672;DHT22;10495;50.922;4.760;2023-03-01T07:43:53;-0.30;77.90
20672;DHT22;10495;50.922;4.760;2023-03-01T07:46:18;0.30;77.50
20672;DHT22;10495;50.922;4.760;2023-03-01T07:48:44;1.00;76.60
20672;DHT22;10495;50.922;4.760;2023-03-01T07:51:10;1.70;75.40
20672;DHT22;10495;50.922;4.760;2023-03-01T07:53:36;2.40;74.20
20672;DHT22;10495;50.922;4.760;2023-03-01T07:56:12;3.00;71.70
20672;DHT22;10495;50.922;4.760;2023-03-01T07:58:41;3.80;71.00
20672;DHT22;10495;50.922;4.760;2023-03-01T08:01:08;4.40;69.20
20672;DHT22;10495;50.922;4.760;2023-03-01T08:03:35;4.90;67.20
20672;DHT22;10495;50.922;4.760;2023-03-01T08:06:03;5.50;65.40
20672;DHT22;10495;50.922;4.760;2023-03-01T08:08:29;6.00;64.00
20672;DHT22;10495;50.922;4.760;2023-03-01T08:10:59;6.40;60.30
20672;DHT22;10495;50.922;4.760;2023-03-01T08:13:25;6.80;60.50
20672;DHT22;10495;50.922;4.760;2023-03-01T08:15:51;7.20;59.30
20672;DHT22;10495;50.922;4.760;2023-03-01T08:18:18;7.40;58.30
20672;DHT22;10495;50.922;4.760;2023-03-01T08:20:44;7.80;58.40
20672;DHT22;10495;50.922;4.760;2023-03-01T08:23:10;7.80;56.80
20672;DHT22;10495;50.922;4.760;2023-03-01T08:25:36;8.10;57.00
20672;DHT22;10495;50.922;4.760;2023-03-01T08:28:01;8.00;55.90
20672;DHT22;10495;50.922;4.760;2023-03-01T08:30:27;7.80;56.40
20672;DHT22;10495;50.922;4.760;2023-03-01T08:32:53;7.50;55.60
20672;DHT22;10495;50.922;4.760;2023-03-01T08:35:20;7.50;56.10
20672;DHT22;10495;50.922;4.760;2023-03-01T08:37:45;7.70;56.10
20672;DHT22;10495;50.922;4.760;2023-03-01T08:40:12;8.00;55.30
20672;DHT22;10495;50.922;4.760;2023-03-01T08:42:39;7.80;55.10
20672;DHT22;10495;50.922;4.760;2023-03-01T08:45:06;7.50;55.10
20672;DHT22;10495;50.922;4.760;2023-03-01T08:47:32;7.60;55.40
20672;DHT22;10495;50.922;4.760;2023-03-01T08:49:59;7.60;55.40
20672;DHT22;10495;50.922;4.760;2023-03-01T08:52:25;7.80;54.70
20672;DHT22;10495;50.922;4.760;2023-03-01T08:54:52;7.30;54.80
20672;DHT22;10495;50.922;4.760;2023-03-01T08:57:18;7.20;55.30
20672;DHT22;10495;50.922;4.760;2023-03-01T08:59:44;7.00;55.20
20672;DHT22;10495;50.922;4.760;2023-03-01T09:02:14;7.10;55.50
20672;DHT22;10495;50.922;4.760;2023-03-01T09:04:41;6.80;55.00
20672;DHT22;10495;50.922;4.760;2023-03-01T09:07:07;6.90;55.40
20672;DHT22;10495;50.922;4.760;2023-03-01T09:09:33;6.70;55.50
20672;DHT22;10495;50.922;4.760;2023-03-01T09:11:59;7.00;55.60
20672;DHT22;10495;50.922;4.760;2023-03-01T09:14:24;7.30;55.60
20672;DHT22;10495;50.922;4.760;2023-03-01T09:16:50;7.40;55.30
20672;DHT22;10495;50.922;4.760;2023-03-01T09:19:16;7.60;55.20
20672;DHT22;10495;50.922;4.760;2023-03-01T09:21:42;7.80;55.20
20672;DHT22;10495;50.922;4.760;2023-03-01T09:24:18;7.90;54.90
20672;DHT22;10495;50.922;4.760;2023-03-01T09:26:45;8.20;54.90
20672;DHT22;10495;50.922;4.760;2023-03-01T09:29:14;8.30;54.00
20672;DHT22;10495;50.922;4.760;2023-03-01T09:31:40;8.00;54.20
20672;DHT22;10495;50.922;4.760;2023-03-01T09:34:06;8.20;54.30
20672;DHT22;10495;50.922;4.760;2023-03-01T09:36:32;8.30;54.00
20672;DHT22;10495;50.922;4.760;2023-03-01T09:38:58;8.40;54.10
20672;DHT22;10495;50.922;4.760;2023-03-01T09:44:27;8.30;53.00
20672;DHT22;10495;50.922;4.760;2023-03-01T09:46:55;8.00;53.40
20672;DHT22;10495;50.922;4.760;2023-03-01T09:54:45;7.60;54.20
20672;DHT22;10495;50.922;4.760;2023-03-01T09:57:15;7.60;53.40
20672;DHT22;10495;50.922;4.760;2023-03-01T10:00:05;7.30;53.80
20672;DHT22;10495;50.922;4.760;2023-03-01T10:05:48;7.50;53.50
20672;DHT22;10495;50.922;4.760;2023-03-01T10:08:34;7.20;53.80
20672;DHT22;10495;50.922;4.760;2023-03-01T10:11:08;6.70;53.90
20672;DHT22;10495;50.922;4.760;2023-03-01T10:16:21;6.30;54.50
20672;DHT22;10495;50.922;4.760;2023-03-01T10:18:53;6.10;54.70
20672;DHT22;10495;50.922;4.760;2023-03-01T10:21:20;5.90;54.80
20672;DHT22;10495;50.922;4.760;2023-03-01T10:23:50;5.60;55.60
20672;DHT22;10495;50.922;4.760;2023-03-01T10:31:26;5.40;55.90
20672;DHT22;10495;50.922;4.760;2023-03-01T10:33:55;5.40;55.70
20672;DHT22;10495;50.922;4.760;2023-03-01T10:36:23;5.40;54.80
20672;DHT22;10495;50.922;4.760;2023-03-01T10:38:52;5.50;54.80
20672;DHT22;10495;50.922;4.760;2023-03-01T10:41:19;5.50;54.70
20672;DHT22;10495;50.922;4.760;2023-03-01T10:43:57;5.50;54.60
20672;DHT22;10495;50.922;4.760;2023-03-01T10:46:34;5.80;54.30
20672;DHT22;10495;50.922;4.760;2023-03-01T10:49:20;5.70;54.60
20672;DHT22;10495;50.922;4.760;2023-03-01T10:51:52;5.50;54.70
20672;DHT22;10495;50.922;4.760;2023-03-01T10:54:27;5.70;54.70
20672;DHT22;10495;50.922;4.760;2023-03-01T10:56:59;5.70;54.80
20672;DHT22;10495;50.922;4.760;2023-03-01T10:59:33;5.90;54.60
20672;DHT22;10495;50.922;4.760;2023-03-01T11:07:22;6.20;54.00
20672;DHT22;10495;50.922;4.760;2023-03-01T11:09:48;6.20;54.50
20672;DHT22;10495;50.922;4.760;2023-03-01T11:12:15;6.10;54.60
20672;DHT22;10495;50.922;4.760;2023-03-01T11:14:53;6.00;54.30
20672;DHT22;10495;50.922;4.760;2023-03-01T11:22:34;5.90;54.20
20672;DHT22;10495;50.922;4.760;2023-03-01T11:25:01;5.90;54.20
20672;DHT22;10495;50.922;4.760;2023-03-01T11:27:38;6.30;53.80
20672;DHT22;10495;50.922;4.760;2023-03-01T11:30:34;6.10;53.90
20672;DHT22;10495;50.922;4.760;2023-03-01T11:33:18;6.40;53.70
20672;DHT22;10495;50.922;4.760;2023-03-01T11:35:56;6.60;53.30
20672;DHT22;10495;50.922;4.760;2023-03-01T11:38:26;6.30;53.50
20672;DHT22;10495;50.922;4.760;2023-03-01T11:41:20;6.50;53.70
20672;DHT22;10495;50.922;4.760;2023-03-01T11:44:01;6.90;52.80
20672;DHT22;10495;50.922;4.760;2023-03-01T11:57:06;6.50;53.30
20672;DHT22;10495;50.922;4.760;2023-03-01T12:07:51;6.80;52.50
20672;DHT22;10495;50.922;4.760;2023-03-01T12:10:44;6.70;52.60
20672;DHT22;10495;50.922;4.760;2023-03-01T12:21:29;7.00;52.30
20672;DHT22;10495;50.922;4.760;2023-03-01T12:24:26;6.90;52.90
20672;DHT22;10495;50.922;4.760;2023-03-01T12:27:16;7.10;52.50
20672;DHT22;10495;50.922;4.760;2023-03-01T12:30:02;6.80;52.60
20672;DHT22;10495;50.922;4.760;2023-03-01T12:38:50;6.80;52.50
20672;DHT22;10495;50.922;4.760;2023-03-01T12:47:07;6.60;52.80
20672;DHT22;10495;50.922;4.760;2023-03-01T12:49:40;6.90;52.60
20672;DHT22;10495;50.922;4.760;2023-03-01T12:54:40;7.30;52.70
20672;DHT22;10495;50.922;4.760;2023-03-01T13:00:35;6.90;52.60
20672;DHT22;10495;50.922;4.760;2023-03-01T13:11:04;7.40;51.90
20672;DHT22;10495;50.922;4.760;2023-03-01T13:13:31;7.30;51.40
20672;DHT22;10495;50.922;4.760;2023-03-01T13:15:57;7.20;52.10
20672;DHT22;10495;50.922;4.760;2023-03-01T13:18:43;7.40;52.20
20672;DHT22;10495;50.922;4.760;2023-03-01T13:21:08;7.30;52.30
20672;DHT22;10495;50.922;4.760;2023-03-01T13:23:37;7.40;52.10
20672;DHT22;10495;50.922;4.760;2023-03-01T13:26:16;7.50;51.70
20672;DHT22;10495;50.922;4.760;2023-03-01T13:33:50;7.30;51.80
20672;DHT22;10495;50.922;4.760;2023-03-01T13:46:44;7.90;51.30
20672;DHT22;10495;50.922;4.760;2023-03-01T13:49:14;7.60;51.60
20672;DHT22;10495;50.922;4.760;2023-03-01T13:51:41;7.30;51.60
20672;DHT22;10495;50.922;4.760;2023-03-01T13:54:12;7.50;52.10
20672;DHT22;10495;50.922;4.760;2023-03-01T13:56:38;7.70;52.20
20672;DHT22;10495;50.922;4.760;2023-03-01T13:59:14;7.90;51.50
20672;DHT22;10495;50.922;4.760;2023-03-01T14:01:40;7.90;51.60
20672;DHT22;10495;50.922;4.760;2023-03-01T14:04:24;8.00;51.30
20672;DHT22;10495;50.922;4.760;2023-03-01T14:06:51;7.80;51.70
20672;DHT22;10495;50.922;4.760;2023-03-01T14:09:23;8.10;50.30
20672;DHT22;10495;50.922;4.760;2023-03-01T14:20:09;7.90;51.20
20672;DHT22;10495;50.922;4.760;2023-03-01T14:22:37;8.00;51.60
20672;DHT22;10495;50.922;4.760;2023-03-01T14:30:45;8.00;50.10
20672;DHT22;10495;50.922;4.760;2023-03-01T14:38:22;8.10;51.00
20672;DHT22;10495;50.922;4.760;2023-03-01T14:40:51;8.30;50.20
20672;DHT22;10495;50.922;4.760;2023-03-01T14:43:22;7.90;50.30
20672;DHT22;10495;50.922;4.760;2023-03-01T14:45:50;7.90;49.60
20672;DHT22;10495;50.922;4.760;2023-03-01T14:48:16;7.90;49.70
20672;DHT22;10495;50.922;4.760;2023-03-01T14:50:44;7.80;49.40
20672;DHT22;10495;50.922;4.760;2023-03-01T14:53:23;8.00;49.40
20672;DHT22;10495;50.922;4.760;2023-03-01T14:55:52;8.40;49.20
20672;DHT22;10495;50.922;4.760;2023-03-01T14:58:24;8.20;49.20
20672;DHT22;10495;50.922;4.760;2023-03-01T15:00:54;8.10;49.90
20672;DHT22;10495;50.922;4.760;2023-03-01T15:05:56;8.10;49.00
20672;DHT22;10495;50.922;4.760;2023-03-01T15:08:26;8.10;49.60
20672;DHT22;10495;50.922;4.760;2023-03-01T15:13:39;8.20;49.80
20672;DHT22;10495;50.922;4.760;2023-03-01T15:16:13;8.40;49.80
20672;DHT22;10495;50.922;4.760;2023-03-01T15:18:49;8.40;50.00
20672;DHT22;10495;50.922;4.760;2023-03-01T15:21:23;8.30;50.00
20672;DHT22;10495;50.922;4.760;2023-03-01T15:24:05;8.10;50.10
20672;DHT22;10495;50.922;4.760;2023-03-01T15:26:37;8.10;50.10
20672;DHT22;10495;50.922;4.760;2023-03-01T15:29:05;8.10;50.20
20672;DHT22;10495;50.922;4.760;2023-03-01T15:31:42;8.20;50.20
20672;DHT22;10495;50.922;4.760;2023-03-01T15:34:25;8.20;50.30
20672;DHT22;10495;50.922;4.760;2023-03-01T15:36:54;8.20;50.40
20672;DHT22;10495;50.922;4.760;2023-03-01T15:39:39;8.30;50.20
20672;DHT22;10495;50.922;4.760;2023-03-01T15:42:09;8.20;49.70
20672;DHT22;10495;50.922;4.760;2023-03-01T15:44:37;8.30;50.30
20672;DHT22;10495;50.922;4.760;2023-03-01T15:47:25;8.30;49.80
20672;DHT22;10495;50.922;4.760;2023-03-01T15:49:53;8.30;50.00
20672;DHT22;10495;50.922;4.760;2023-03-01T15:52:26;8.30;49.10
20672;DHT22;10495;50.922;4.760;2023-03-01T15:55:03;8.10;49.40
20672;DHT22;10495;50.922;4.760;2023-03-01T15:57:29;8.00;49.60
20672;DHT22;10495;50.922;4.760;2023-03-01T15:59:55;8.00;49.80
20672;DHT22;10495;50.922;4.760;2023-03-01T16:02:23;8.10;49.60
20672;DHT22;10495;50.922;4.760;2023-03-01T16:04:50;8.00;49.20
20672;DHT22;10495;50.922;4.760;2023-03-01T16:07:16;8.00;49.70
20672;DHT22;10495;50.922;4.760;2023-03-01T16:09:41;8.00;49.70
20672;DHT22;10495;50.922;4.760;2023-03-01T16:12:14;8.00;49.70
20672;DHT22;10495;50.922;4.760;2023-03-01T16:14:40;7.90;50.20
20672;DHT22;10495;50.922;4.760;2023-03-01T16:17:06;7.90;50.20
20672;DHT22;10495;50.922;4.760;2023-03-01T16:19:33;7.80;50.50
20672;DHT22;10495;50.922;4.760;2023-03-01T16:21:59;7.80;50.30
20672;DHT22;10495;50.922;4.760;2023-03-01T16:24:24;7.90;50.10
20672;DHT22;10495;50.922;4.760;2023-03-01T16:26:51;8.00;50.10
20672;DHT22;10495;50.922;4.760;2023-03-01T16:29:16;7.80;50.40
20672;DHT22;10495;50.922;4.760;2023-03-01T16:31:42;7.90;50.30
20672;DHT22;10495;50.922;4.760;2023-03-01T16:34:08;7.80;50.50
20672;DHT22;10495;50.922;4.760;2023-03-01T16:36:33;8.00;50.30
20672;DHT22;10495;50.922;4.760;2023-03-01T16:38:59;8.00;50.30
20672;DHT22;10495;50.922;4.760;2023-03-01T16:41:27;7.70;50.50
20672;DHT22;10495;50.922;4.760;2023-03-01T16:43:54;7.40;50.70
20672;DHT22;10495;50.922;4.760;2023-03-01T16:46:22;7.40;51.10
20672;DHT22;10495;50.922;4.760;2023-03-01T16:48:49;7.50;51.00
20672;DHT22;10495;50.922;4.760;2023-03-01T16:51:15;7.50;51.00
20672;DHT22;10495;50.922;4.760;2023-03-01T16:53:40;7.40;51.00
20672;DHT22;10495;50.922;4.760;2023-03-01T16:56:09;7.40;51.20
20672;DHT22;10495;50.922;4.760;2023-03-01T16:58:36;7.60;51.00
20672;DHT22;10495;50.922;4.760;2023-03-01T17:01:18;7.50;51.30
20672;DHT22;10495;50.922;4.760;2023-03-01T17:03:45;7.50;51.00
20672;DHT22;10495;50.922;4.760;2023-03-01T17:06:14;7.50;51.30
20672;DHT22;10495;50.922;4.760;2023-03-01T17:08:39;7.30;51.40
20672;DHT22;10495;50.922;4.760;2023-03-01T17:11:11;7.30;51.40
20672;DHT22;10495;50.922;4.760;2023-03-01T17:13:37;7.20;51.60
20672;DHT22;10495;50.922;4.760;2023-03-01T17:16:08;7.20;51.50
20672;DHT22;10495;50.922;4.760;2023-03-01T17:18:34;7.20;51.50
20672;DHT22;10495;50.922;4.760;2023-03-01T17:21:00;7.20;51.50
20672;DHT22;10495;50.922;4.760;2023-03-01T17:23:28;6.90;51.70
20672;DHT22;10495;50.922;4.760;2023-03-01T17:25:54;6.70;51.90
20672;DHT22;10495;50.922;4.760;2023-03-01T17:28:26;6.70;52.10
20672;DHT22;10495;50.922;4.760;2023-03-01T17:30:53;6.50;52.10
20672;DHT22;10495;50.922;4.760;2023-03-01T17:33:20;6.70;52.20
20672;DHT22;10495;50.922;4.760;2023-03-01T17:35:45;6.70;52.00
20672;DHT22;10495;50.922;4.760;2023-03-01T17:38:13;6.70;52.10
20672;DHT22;10495;50.922;4.760;2023-03-01T17:40:39;6.70;51.90
20672;DHT22;10495;50.922;4.760;2023-03-01T17:43:06;6.80;52.00
20672;DHT22;10495;50.922;4.760;2023-03-01T17:45:31;6.70;52.00
20672;DHT22;10495;50.922;4.760;2023-03-01T17:47:57;6.80;51.90
20672;DHT22;10495;50.922;4.760;2023-03-01T17:50:23;6.60;52.00
20672;DHT22;10495;50.922;4.760;2023-03-01T17:52:48;6.80;52.00
20672;DHT22;10495;50.922;4.760;2023-03-01T17:55:14;6.70;52.00
20672;DHT22;10495;50.922;4.760;2023-03-01T17:57:41;6.60;52.20
20672;DHT22;10495;50.922;4.760;2023-03-01T18:00:09;6.50;52.20
20672;DHT22;10495;50.922;4.760;2023-03-01T18:02:36;6.60;52.20
20672;DHT22;10495;50.922;4.760;2023-03-01T18:05:01;6.40;52.30
20672;DHT22;10495;50.922;4.760;2023-03-01T18:07:28;6.40;52.30
20672;DHT22;10495;50.922;4.760;2023-03-01T18:09:54;6.30;52.30
20672;DHT22;10495;50.922;4.760;2023-03-01T18:12:20;6.30;52.40
20672;DHT22;10495;50.922;4.760;2023-03-01T18:14:48;6.40;52.50